CYPL

Pickle Lake Airport

Pickle Lake, Ontario, Canada
TAF AMD CYPL 221349Z 2213/2301 21005KT 2SM -SN OVC012 BECMG 2214/2216 P6SM NSW OVC025 FM221600 21005KT 5SM -SN OVC012 TEMPO 2216/2301 P6SM NSW SCT012 OVC030 BECMG 2222/2224 26005KT RMK NXT FCST BY 222000Z
Issued Valid From Valid To
Jan-22 @ 13:49 UTC
(4 hours ago)
Jan-22 @ 13:00 UTC
(5 hours ago)
Jan-23 @ 01:00 UTC
(in 7 hours)
Expired Click to View Jan-22 @ 13:00 to Jan-22 @ 14:00
TAF AMD CYPL 221349Z 2213/2301 21005KT 2SM -SN OVC012
Wind Visibility Clouds Conditions
210° at 5 knots 2 miles
  • Overcast at 1,200' AGL
  • Light Snow
Expired Click to View Jan-22 @ 14:00 to Jan-22 @ 16:00
BECMG 2214/2216 P6SM NSW OVC025
Wind Visibility Clouds Conditions
210° at 5 knots Greater than 6 miles
  • Overcast at 2,500' AGL
From Jan-22 @ 16:00 to Jan-22 @ 22:00
FM221600 21005KT 5SM -SN OVC012
Wind Visibility Clouds Conditions
210° at 5 knots 5 miles
  • Overcast at 1,200' AGL
  • Light Snow
Temporary Jan-22 @ 16:00 to Jan-23 @ 01:00
TEMPO 2216/2301 P6SM NSW SCT012 OVC030
Visibility Clouds Conditions
Greater than 6 miles
  • Scattered at 1,200' AGL
  • Overcast at 3,000' AGL
Becoming Jan-22 @ 22:00 to Jan-23 @ 01:00
BECMG 2222/2224 26005KT RMK NXT FCST BY 222000Z
Wind Visibility Clouds Conditions
260° at 5 knots 5 miles
  • Overcast at 1,200' AGL
  • Light Snow
TAF AMD CYPL 221349Z 2213/2301 21005KT 2SM -SN OVC012 BECMG 2214/2216 P6SM NSW OVC025 FM221600 21005KT 5SM -SN OVC012 TEMPO 2216/2301 P6SM NSW SCT012 OVC030 BECMG 2222/2224 26005KT RMK NXT FCST BY 222000Z
Issued Jan-22 @ 13:49 UTC
(4 hours ago)
Valid From Jan-22 @ 13:00 UTC
(5 hours ago)
Valid To Jan-23 @ 01:00 UTC
(in 7 hours)
Jan-22 @ 13:00 - Jan-22 @ 14:00
Wind Visibility
210° at 5 knots 2 miles
Clouds
  • Overcast at 1,200' AGL
Conditions
  • Light Snow
Jan-22 @ 14:00 - Jan-22 @ 16:00
Wind Visibility
210° at 5 knots Greater than 6 miles
Clouds
  • Overcast at 2,500' AGL
Conditions
From Jan-22 @ 16:00 - Jan-22 @ 22:00
Wind Visibility
210° at 5 knots 5 miles
Clouds
  • Overcast at 1,200' AGL
Conditions
  • Light Snow
Temporary Jan-22 @ 16:00 - Jan-23 @ 01:00
Clouds
  • Scattered at 1,200' AGL
  • Overcast at 3,000' AGL
Conditions
Becoming Jan-22 @ 22:00 - Jan-23 @ 01:00
Wind Visibility
260° at 5 knots 5 miles
Clouds
  • Overcast at 1,200' AGL
Conditions
  • Light Snow